createdAt,value
2018-05-15T00:01:00.467Z,85.28
2018-05-15T00:02:09.332Z,85.48
2018-05-15T00:03:18.471Z,85.28
2018-05-15T00:04:27.330Z,85.1
2018-05-15T00:05:36.192Z,85.28
2018-05-15T00:06:45.056Z,86.15
2018-05-15T00:07:53.919Z,86.25
2018-05-15T00:09:02.783Z,86.05
2018-05-15T00:10:11.651Z,86.05
2018-05-15T00:11:20.996Z,86.82
2018-05-15T00:12:29.859Z,85.86
2018-05-15T00:13:38.721Z,87.21
2018-05-15T00:14:47.587Z,87.4
2018-05-15T00:15:56.446Z,87.49
2018-05-15T00:17:05.308Z,86.05
2018-05-15T00:18:14.172Z,86.25
2018-05-15T00:19:23.032Z,85.58
2018-05-15T00:20:31.900Z,85.38
2018-05-15T00:21:40.759Z,86.15
2018-05-15T00:22:49.621Z,86.25
2018-05-15T00:23:58.490Z,86.82
2018-05-15T00:25:07.344Z,86.82
2018-05-15T00:26:16.762Z,86.54
2018-05-15T00:27:25.624Z,86.63
2018-05-15T00:28:34.836Z,86.72
2018-05-15T00:29:43.704Z,86.63
2018-05-15T00:30:52.843Z,87.78
2018-05-15T00:32:01.983Z,87.45
2018-05-15T00:33:10.844Z,87.74
2018-05-15T00:34:20.333Z,87.64
2018-05-15T00:35:29.204Z,87.93
2018-05-15T00:36:38.073Z,87.74
2018-05-15T00:37:47.490Z,88.7
2018-05-15T00:38:56.643Z,88.41
2018-05-15T00:40:05.508Z,88.6
2018-05-15T00:41:14.369Z,88.7
2018-05-15T00:42:23.511Z,88.41
2018-05-15T00:43:32.371Z,90.04
2018-05-15T00:44:41.232Z,89.85
2018-05-15T00:45:50.803Z,89.61
2018-05-15T00:46:59.942Z,89.65
2018-05-15T00:48:08.802Z,89.9
2018-05-15T00:49:17.663Z,90.57
2018-05-15T00:50:26.526Z,89.9
2018-05-15T00:51:35.383Z,90.38
2018-05-15T00:52:44.521Z,90.19
2018-05-15T00:53:53.661Z,90.67
2018-05-15T00:55:02.797Z,89.42
2018-05-15T00:56:11.938Z,90.09
2018-05-15T00:57:21.148Z,90.38
2018-05-15T00:58:30.011Z,90.76
2018-05-15T00:59:39.150Z,90.67
2018-05-15T01:00:48.289Z,89.9
2018-05-15T01:01:57.429Z,90.38
2018-05-15T01:03:06.647Z,90.76
2018-05-15T01:04:15.507Z,91.24
2018-05-15T01:05:24.650Z,90.28
2018-05-15T01:06:33.513Z,90.86
2018-05-15T01:07:42.371Z,91.53
2018-05-15T01:08:51.283Z,91.43
2018-05-15T01:10:00.147Z,91.14
2018-05-15T01:11:09.008Z,91.24
2018-05-15T01:12:17.873Z,91.43
2018-05-15T01:13:26.734Z,92.15
2018-05-15T01:14:35.596Z,91.86
2018-05-15T01:15:44.462Z,91.67
2018-05-15T01:16:53.320Z,91.39
2018-05-15T01:18:02.182Z,92.25
2018-05-15T01:19:11.046Z,91.39
2018-05-15T01:20:20.009Z,91.19
2018-05-15T01:21:28.867Z,91
2018-05-15T01:22:38.011Z,92.06
2018-05-15T01:23:47.153Z,91.86
2018-05-15T01:24:56.014Z,92.25
2018-05-15T01:26:04.876Z,92.35
2018-05-15T01:27:13.737Z,91.86
2018-05-15T01:28:22.601Z,92.63
2018-05-15T01:29:31.459Z,92.63
2018-05-15T01:30:40.337Z,92.92
2018-05-15T01:31:49.437Z,92.06
2018-05-15T01:32:58.300Z,92.63
2018-05-15T01:34:07.162Z,92.25
2018-05-15T01:35:16.023Z,92.06
2018-05-15T01:36:24.884Z,92.92
2018-05-15T01:37:33.743Z,93.21
2018-05-15T01:38:42.601Z,93.11
2018-05-15T01:39:51.464Z,93.07
2018-05-15T01:41:00.350Z,92.01
2018-05-15T01:42:09.214Z,93.26
2018-05-15T01:43:18.075Z,92.97
2018-05-15T01:44:27.214Z,92.87
2018-05-15T01:45:36.079Z,92.58
2018-05-15T01:46:45.224Z,92.58
2018-05-15T01:47:54.084Z,93.54
2018-05-15T01:49:03.197Z,92.87
2018-05-15T01:50:12.364Z,93.35
2018-05-15T01:51:21.226Z,93.26
2018-05-15T01:52:30.087Z,93.45
2018-05-15T01:53:38.954Z,93.26
2018-05-15T01:54:47.817Z,93.16
2018-05-15T01:55:56.675Z,93.07
2018-05-15T01:57:05.536Z,93.35
2018-05-15T01:58:14.394Z,93.74
2018-05-15T01:59:23.255Z,93.93
2018-05-15T02:00:32.622Z,93.74
2018-05-15T02:01:41.488Z,93.54
2018-05-15T02:02:50.343Z,94.02
2018-05-15T02:03:59.482Z,94.21
2018-05-15T02:05:08.630Z,93.64
2018-05-15T02:06:17.918Z,93.83
2018-05-15T02:07:26.779Z,93.45
2018-05-15T02:08:35.918Z,93.07
2018-05-15T02:09:44.780Z,94.02
2018-05-15T02:10:53.640Z,94.21
2018-05-15T02:12:02.615Z,93.74
2018-05-15T02:13:11.477Z,94.26
2018-05-15T02:14:20.337Z,94.55
2018-05-15T02:15:29.475Z,93.98
2018-05-15T02:16:38.334Z,93.4
2018-05-15T02:17:47.528Z,93.45
2018-05-15T02:18:56.389Z,94.4
2018-05-15T02:20:05.250Z,93.69
2018-05-15T02:21:14.393Z,94.26
2018-05-15T02:22:23.253Z,94.4
2018-05-15T02:23:32.264Z,94.17
2018-05-15T02:24:41.408Z,93.88
2018-05-15T02:25:50.267Z,93.79
2018-05-15T02:26:59.129Z,93.79
2018-05-15T02:28:07.992Z,94.26
2018-05-15T02:29:17.284Z,93.88
2018-05-15T02:30:26.155Z,94.07
2018-05-15T02:31:35.787Z,93.88
2018-05-15T02:32:45.207Z,94.26
2018-05-15T02:33:54.621Z,93.98
2018-05-15T02:35:04.489Z,93.79
2018-05-15T02:36:13.353Z,94.17
2018-05-15T02:37:22.213Z,94.45
2018-05-15T02:38:31.641Z,94.07
2018-05-15T02:39:40.793Z,94.74
2018-05-15T02:40:50.383Z,94.65
2018-05-15T02:41:59.524Z,94.45
2018-05-15T02:43:08.685Z,95.41
2018-05-15T02:44:17.943Z,95.12
2018-05-15T02:45:27.094Z,95.41
2018-05-15T02:46:36.339Z,95.12
2018-05-15T02:47:46.041Z,95.12
2018-05-15T02:48:54.903Z,95.7
2018-05-15T02:50:04.045Z,95.7
2018-05-15T02:51:13.191Z,94.79
2018-05-15T02:52:22.158Z,95.03
2018-05-15T02:53:31.304Z,95.75
2018-05-15T02:54:40.446Z,95.65
2018-05-15T02:55:49.682Z,95.07
2018-05-15T02:56:58.444Z,95.75
2018-05-15T02:58:07.662Z,95.07
2018-05-15T02:59:16.805Z,95.75
2018-05-15T03:00:25.666Z,95.56
2018-05-15T03:01:34.814Z,95.56
2018-05-15T03:02:43.955Z,95.75
2018-05-15T03:03:53.459Z,94.89
2018-05-15T03:05:02.325Z,95.75
2018-05-15T03:06:11.482Z,95.84
2018-05-15T03:07:20.622Z,96.03
2018-05-15T03:08:29.493Z,95.84
2018-05-15T03:09:38.731Z,96.13
2018-05-15T03:10:47.593Z,95.65
2018-05-15T03:11:56.730Z,96.13
2018-05-15T03:13:06.154Z,96.42
2018-05-15T03:14:15.016Z,96.22
2018-05-15T03:15:24.029Z,95.7
2018-05-15T03:16:32.891Z,95.75
2018-05-15T03:17:42.305Z,96.32
2018-05-15T03:18:51.168Z,96.03
2018-05-15T03:20:00.584Z,96.47
2018-05-15T03:21:09.499Z,95.79
2018-05-15T03:22:18.359Z,96.27
2018-05-15T03:23:27.219Z,96.18
2018-05-15T03:24:36.364Z,96.42
2018-05-15T03:25:45.224Z,96.27
2018-05-15T03:26:54.134Z,96.18
2018-05-15T03:28:02.994Z,96.37
2018-05-15T03:29:11.855Z,95.79
2018-05-15T03:30:20.723Z,96.47
2018-05-15T03:31:29.871Z,96.27
2018-05-15T03:32:39.084Z,96.27
2018-05-15T03:33:48.227Z,96.27
2018-05-15T03:34:57.367Z,97.23
2018-05-15T03:36:06.226Z,96.47
2018-05-15T03:37:15.087Z,96.37
2018-05-15T03:38:24.240Z,96.37
2018-05-15T03:39:33.102Z,96.47
2018-05-15T03:40:41.965Z,96.47
2018-05-15T03:41:50.824Z,95.98
2018-05-15T03:42:59.686Z,96.08
2018-05-15T03:44:08.698Z,96.27
2018-05-15T03:45:17.557Z,96.08
2018-05-15T03:46:26.417Z,96.08
2018-05-15T03:47:35.276Z,96.27
2018-05-15T03:48:44.416Z,96.47
2018-05-15T03:49:53.658Z,96.08
2018-05-15T03:51:02.517Z,96.18
2018-05-15T03:52:11.655Z,96.47
2018-05-15T03:53:20.518Z,96.37
2018-05-15T03:54:29.659Z,96.66
2018-05-15T03:55:38.519Z,97.61
2018-05-15T03:56:47.933Z,96.84
2018-05-15T03:57:56.789Z,96.47
2018-05-15T03:59:05.649Z,96.37
2018-05-15T04:00:14.511Z,96.18
2018-05-15T04:01:23.721Z,97.23
2018-05-15T04:02:32.869Z,96.08
2018-05-15T04:03:42.008Z,95.98
2018-05-15T04:04:51.151Z,95.98
2018-05-15T04:06:00.013Z,96.18
2018-05-15T04:07:08.874Z,96.37
2018-05-15T04:08:18.010Z,96.47
2018-05-15T04:09:26.868Z,96.08
2018-05-15T04:10:35.728Z,96.37
2018-05-15T04:11:44.589Z,97.13
2018-05-15T04:12:53.895Z,96.08
2018-05-15T04:14:02.684Z,97.33
2018-05-15T04:15:11.548Z,97.33
2018-05-15T04:16:20.409Z,96.94
2018-05-15T04:17:29.552Z,96.37
2018-05-15T04:18:38.564Z,96.66
2018-05-15T04:19:47.424Z,97.13
2018-05-15T04:20:56.285Z,96.47
2018-05-15T04:22:05.423Z,96.18
2018-05-15T04:23:14.284Z,96.47
2018-05-15T04:24:23.142Z,96.47
2018-05-15T04:25:32.001Z,97.23
2018-05-15T04:26:41.145Z,95.89
2018-05-15T04:27:50.008Z,96.47
2018-05-15T04:28:59.146Z,97.04
2018-05-15T04:30:08.011Z,97.13
2018-05-15T04:31:16.867Z,96.37
2018-05-15T04:32:25.743Z,96.37
2018-05-15T04:33:34.880Z,97.33
2018-05-15T04:34:44.016Z,96.56
2018-05-15T04:35:52.879Z,95.98
2018-05-15T04:37:02.016Z,96.27
2018-05-15T04:38:11.158Z,95.61
2018-05-15T04:39:20.018Z,96.37
2018-05-15T04:40:29.435Z,96.27
2018-05-15T04:41:38.346Z,96.47
2018-05-15T04:42:47.483Z,96.37
2018-05-15T04:43:56.772Z,96.56
2018-05-15T04:45:06.338Z,95.98
2018-05-15T04:46:15.477Z,96.27
2018-05-15T04:47:24.687Z,96.37
2018-05-15T04:48:33.544Z,96.18
2018-05-15T04:49:42.404Z,95.89
2018-05-15T04:50:51.269Z,96.47
2018-05-15T04:52:02.202Z,95.51
2018-05-15T04:53:15.015Z,96.08
2018-05-15T04:54:24.147Z,95.61
2018-05-15T04:55:33.287Z,95.79
2018-05-15T04:56:42.905Z,95.32
2018-05-15T04:57:51.770Z,95.22
2018-05-15T04:59:00.979Z,95.51
2018-05-15T05:00:09.839Z,95.32
2018-05-15T05:01:18.980Z,95.03
2018-05-15T05:02:28.396Z,96.08
2018-05-15T05:03:37.534Z,94.65
2018-05-15T05:04:47.117Z,95.46
2018-05-15T05:05:55.979Z,95.22
2018-05-15T05:07:04.840Z,95.51
2018-05-15T05:08:13.699Z,95.03
2018-05-15T05:09:22.558Z,94.74
2018-05-15T05:10:31.670Z,95.79
2018-05-15T05:11:40.603Z,95.79
2018-05-15T05:12:49.392Z,94.7
2018-05-15T05:13:58.257Z,94.89
2018-05-15T05:15:07.397Z,94.89
2018-05-15T05:16:16.260Z,95.07
2018-05-15T05:17:25.401Z,95.07
2018-05-15T05:18:34.265Z,95.36
2018-05-15T05:19:43.399Z,95.27
2018-05-15T05:20:52.541Z,95.46
2018-05-15T05:22:01.498Z,95.17
2018-05-15T05:23:10.359Z,95.36
2018-05-15T05:24:19.499Z,94.41
2018-05-15T05:25:28.635Z,94.31
2018-05-15T05:26:37.500Z,94.79
2018-05-15T05:27:46.716Z,94.5
2018-05-15T05:28:55.859Z,94.21
2018-05-15T05:30:05.014Z,94.41
2018-05-15T05:31:13.877Z,94.6
2018-05-15T05:32:22.738Z,94.7
2018-05-15T05:33:31.976Z,94.41
2018-05-15T05:34:40.836Z,95.07
2018-05-15T05:35:49.740Z,94.7
2018-05-15T05:36:58.609Z,94.41
2018-05-15T05:38:07.752Z,94.6
2018-05-15T05:39:16.763Z,94.7
2018-05-15T05:40:25.901Z,94.41
2018-05-15T05:41:34.772Z,93.84
2018-05-15T05:42:43.916Z,94.02
2018-05-15T05:43:52.780Z,93.93
2018-05-15T05:45:02.269Z,93.79
2018-05-15T05:46:11.417Z,93.88
2018-05-15T05:47:20.277Z,93.98
2018-05-15T05:48:29.241Z,93.59
2018-05-15T05:49:38.100Z,93.88
2018-05-15T05:50:47.011Z,93.79
2018-05-15T05:51:56.483Z,93.4
2018-05-15T05:53:05.296Z,93.5
2018-05-15T05:54:14.160Z,93.5
2018-05-15T05:55:23.069Z,93.59
2018-05-15T05:56:31.909Z,93.5
2018-05-15T05:57:40.771Z,93.69
2018-05-15T05:58:49.912Z,93.98
2018-05-15T05:59:59.433Z,93.88
2018-05-15T06:01:08.298Z,93.88
2018-05-15T06:02:17.284Z,93.12
2018-05-15T06:03:26.147Z,93.21
2018-05-15T06:04:35.334Z,93.4
2018-05-15T06:05:44.472Z,92.73
2018-05-15T06:06:53.614Z,92.83
2018-05-15T06:08:02.627Z,92.92
2018-05-15T06:09:11.777Z,93.5
2018-05-15T06:10:20.919Z,93.69
2018-05-15T06:11:29.781Z,93.69
2018-05-15T06:12:38.643Z,92.73
2018-05-15T06:13:47.781Z,92.63
2018-05-15T06:14:56.642Z,92.92
2018-05-15T06:16:05.503Z,93.07
2018-05-15T06:17:14.646Z,93.02
2018-05-15T06:18:23.544Z,92.73
2018-05-15T06:19:32.721Z,92.63
2018-05-15T06:20:41.969Z,92.87
2018-05-15T06:21:51.865Z,92.68
2018-05-15T06:23:00.726Z,92.58
2018-05-15T06:24:09.592Z,92.49
2018-05-15T06:25:18.508Z,92.49
2018-05-15T06:26:27.647Z,92.78
2018-05-15T06:27:36.546Z,92.3
2018-05-15T06:28:45.374Z,92.49
2018-05-15T06:29:54.284Z,92.3
2018-05-15T06:31:03.586Z,92.4
2018-05-15T06:32:12.446Z,92.78
2018-05-15T06:33:21.640Z,92.3
2018-05-15T06:34:30.502Z,91.92
2018-05-15T06:35:39.364Z,91.72
2018-05-15T06:36:48.226Z,91.77
2018-05-15T06:37:57.089Z,91.49
2018-05-15T06:39:05.954Z,91.39
2018-05-15T06:40:14.815Z,91.39
2018-05-15T06:41:23.721Z,91.39
2018-05-15T06:42:32.870Z,91.49
2018-05-15T06:43:41.735Z,92.73
2018-05-15T06:44:50.989Z,92.35
2018-05-15T06:45:59.737Z,91.86
2018-05-15T06:47:08.887Z,92.54
2018-05-15T06:48:18.098Z,90.91
2018-05-15T06:49:26.959Z,90.23
2018-05-15T06:50:36.095Z,90.33
2018-05-15T06:51:44.957Z,90.33
2018-05-15T06:52:54.096Z,90.19
2018-05-15T06:54:03.393Z,89.9
2018-05-15T06:55:12.254Z,89.8
2018-05-15T06:56:21.395Z,89.51
2018-05-15T06:57:30.255Z,89.32
2018-05-15T06:58:39.396Z,89.61
2018-05-15T06:59:48.307Z,89.32
2018-05-15T07:00:57.168Z,90.19
2018-05-15T07:02:06.031Z,90.28
2018-05-15T07:03:14.894Z,89.8
2018-05-15T07:04:24.038Z,89.8
2018-05-15T07:05:32.955Z,89.56
2018-05-15T07:06:41.892Z,89.56
2018-05-15T07:07:50.750Z,89.23
2018-05-15T07:08:59.540Z,88.75
2018-05-15T07:10:08.400Z,89.18
2018-05-15T07:11:17.413Z,89.47
2018-05-15T07:12:26.552Z,89.18
2018-05-15T07:13:35.692Z,88.7
2018-05-15T07:14:44.834Z,87.74
2018-05-15T07:15:53.698Z,86.68
2018-05-15T07:17:03.012Z,87.35
2018-05-15T07:18:11.878Z,86.58
2018-05-15T07:19:20.768Z,85.82
2018-05-15T07:20:29.977Z,87.26
2018-05-15T07:21:39.119Z,87.16
2018-05-15T07:22:48.033Z,87.21
2018-05-15T07:23:57.173Z,86.3
2018-05-15T07:25:06.039Z,85.72
2018-05-15T07:26:15.182Z,88.02
2018-05-15T07:27:24.067Z,86.88
2018-05-15T07:28:33.294Z,86.34
2018-05-15T07:29:42.157Z,86.05
2018-05-15T07:30:51.025Z,86.05
2018-05-15T07:31:59.893Z,85.48
2018-05-15T07:33:08.774Z,86.44
2018-05-15T07:34:17.966Z,86.54
2018-05-15T07:35:26.831Z,87.21
2018-05-15T07:36:35.693Z,86.63
2018-05-15T07:37:44.838Z,86.92
2018-05-15T07:38:53.698Z,87.88
2018-05-15T07:40:02.660Z,86.44
2018-05-15T07:41:11.523Z,87.11
2018-05-15T07:42:20.387Z,87.59
2018-05-15T07:43:29.534Z,88.07
2018-05-15T07:44:38.398Z,87.98
2018-05-15T07:45:47.310Z,88.35
2018-05-15T07:46:56.175Z,87.68
2018-05-15T07:48:05.039Z,86.54
2018-05-15T07:49:14.258Z,86.82
2018-05-15T07:50:23.400Z,86.72
2018-05-15T07:51:32.546Z,86.68
2018-05-15T07:52:41.408Z,87.35
2018-05-15T07:53:50.273Z,86.77
2018-05-15T07:54:59.136Z,86.77
2018-05-15T07:56:07.998Z,87.54
2018-05-15T07:57:17.192Z,87.05
2018-05-15T07:58:26.055Z,86.1
2018-05-15T07:59:34.915Z,86.87
2018-05-15T08:00:44.062Z,84.85
2018-05-15T08:01:53.203Z,85.04
2018-05-15T08:03:02.806Z,86.77
2018-05-15T08:04:11.957Z,86.77
2018-05-15T08:05:21.165Z,86
2018-05-15T08:06:30.306Z,86.1
2018-05-15T08:07:39.169Z,84.7
2018-05-15T08:08:48.182Z,85.47
2018-05-15T08:09:57.045Z,85.57
2018-05-15T08:11:05.911Z,84.03
2018-05-15T08:12:15.064Z,84.99
2018-05-15T08:13:24.209Z,83.74
2018-05-15T08:14:33.359Z,82.68
2018-05-15T08:15:42.229Z,82.68
2018-05-15T08:16:51.092Z,84.03
2018-05-15T08:17:59.958Z,84.22
2018-05-15T08:19:08.822Z,84.12
2018-05-15T08:20:17.735Z,85.28
2018-05-15T08:21:26.600Z,84.51
2018-05-15T08:22:35.559Z,83.49
2018-05-15T08:23:45.260Z,82.05
2018-05-15T08:24:54.405Z,81.76
2018-05-15T08:26:03.526Z,80.9
2018-05-15T08:27:12.669Z,82.15
2018-05-15T08:28:22.087Z,81.09
2018-05-15T08:29:30.952Z,80.13
2018-05-15T08:30:39.815Z,80.17
2018-05-15T08:31:49.477Z,81.42
2018-05-15T08:32:58.339Z,79.69
2018-05-15T08:34:07.487Z,80.04
2018-05-15T08:35:16.349Z,82.29
2018-05-15T08:36:25.211Z,81.13
2018-05-15T08:37:34.494Z,79.21
2018-05-15T08:38:43.826Z,78.34
2018-05-15T08:39:52.970Z,79.6
2018-05-15T08:41:02.111Z,78.83
2018-05-15T08:42:10.976Z,79.21
2018-05-15T08:43:20.092Z,76.52
2018-05-15T08:44:28.956Z,76.94
2018-05-15T08:45:38.098Z,77.71
2018-05-15T08:46:46.963Z,77.71
2018-05-15T08:47:55.826Z,76.52
2018-05-15T08:49:04.792Z,75.69
2018-05-15T08:50:13.655Z,76.46
2018-05-15T08:51:22.862Z,73.28
2018-05-15T08:52:31.384Z,75.59
2018-05-15T08:53:40.245Z,74.15
2018-05-15T08:54:49.445Z,75.31
2018-05-15T08:55:58.313Z,75.02
2018-05-15T08:57:07.452Z,74.05
2018-05-15T08:58:16.315Z,70.98
2018-05-15T08:59:25.179Z,70.62
2018-05-15T09:00:34.091Z,71.11
2018-05-15T09:01:42.957Z,70.24
2018-05-15T09:02:51.821Z,71.3
2018-05-15T09:04:00.684Z,72.84
2018-05-15T09:05:09.827Z,75.92
2018-05-15T09:06:19.419Z,71.78
2018-05-15T09:07:28.285Z,72.26
2018-05-15T09:08:37.427Z,72.36
2018-05-15T09:09:46.292Z,70.62
2018-05-15T09:10:55.208Z,73.16
2018-05-15T09:12:04.420Z,70.05
2018-05-15T09:13:13.285Z,70.95
2018-05-15T09:14:22.150Z,68.44
2018-05-15T09:15:31.293Z,69.79
2018-05-15T09:16:40.431Z,67.97
2018-05-15T09:17:49.685Z,69.02
2018-05-15T09:18:58.548Z,69.06
2018-05-15T09:20:07.414Z,68.48
2018-05-15T09:21:16.280Z,70.89
2018-05-15T09:22:25.469Z,71.66
2018-05-15T09:23:34.668Z,71.53
2018-05-15T09:24:43.531Z,69.22
2018-05-15T09:25:52.678Z,68.64
2018-05-15T09:27:01.631Z,66.71
2018-05-15T09:28:10.777Z,67.77
2018-05-15T09:29:19.792Z,66.55
2018-05-15T09:30:28.607Z,66.55
2018-05-15T09:31:37.753Z,67.61
2018-05-15T09:32:46.618Z,68
2018-05-15T09:33:55.483Z,65.01
2018-05-15T09:35:05.081Z,63.89
2018-05-15T09:36:14.509Z,64.08
2018-05-15T09:37:23.944Z,61.38
2018-05-15T09:38:32.809Z,62.06
2018-05-15T09:39:41.673Z,61.71
2018-05-15T09:40:50.588Z,62.66
2018-05-15T09:41:59.454Z,62.38
2018-05-15T09:43:08.607Z,63.92
2018-05-15T09:44:18.028Z,60.71
2018-05-15T09:45:26.894Z,61.8
2018-05-15T09:46:35.960Z,59.87
2018-05-15T09:47:44.831Z,61.71
2018-05-15T09:48:53.704Z,59.97
2018-05-15T09:50:02.568Z,60.06
2018-05-15T09:51:11.711Z,59.97
2018-05-15T09:52:20.766Z,61.16
2018-05-15T09:53:29.592Z,60.06
2018-05-15T09:54:38.739Z,59.32
2018-05-15T09:55:47.886Z,59.9
2018-05-15T09:56:56.753Z,60.19
2018-05-15T09:58:05.765Z,60.1
2018-05-15T09:59:14.632Z,59.93
2018-05-15T10:00:23.773Z,59.8
2018-05-15T10:01:32.915Z,60
2018-05-15T10:02:42.077Z,58.17
2018-05-15T10:03:51.327Z,59.13
2018-05-15T10:05:00.470Z,58.75
2018-05-15T10:06:09.338Z,57.42
2018-05-15T10:07:18.203Z,55.88
2018-05-15T10:08:27.072Z,53.66
2018-05-15T10:09:35.984Z,52.4
2018-05-15T10:10:44.850Z,50.57
2018-05-15T10:11:53.717Z,52.98
2018-05-15T10:13:02.584Z,54.05
2018-05-15T10:14:11.486Z,54.05
2018-05-15T10:15:21.634Z,53.37
2018-05-15T10:16:30.498Z,52.89
2018-05-15T10:17:39.364Z,52.21
2018-05-15T10:18:48.232Z,52.69
2018-05-15T10:19:57.138Z,53.47
2018-05-15T10:21:07.153Z,53.3
2018-05-15T10:22:16.021Z,53.39
2018-05-15T10:23:25.163Z,55.04
2018-05-15T10:24:34.030Z,53.95
2018-05-15T10:25:43.186Z,55.68
2018-05-15T10:26:52.051Z,53.11
2018-05-15T10:28:00.913Z,49.73
2018-05-15T10:29:09.780Z,52.53
2018-05-15T10:30:18.647Z,52.53
2018-05-15T10:31:27.512Z,52.91
2018-05-15T10:32:36.625Z,52.14
2018-05-15T10:33:45.492Z,51.95
2018-05-15T10:34:54.357Z,53.3
2018-05-15T10:36:03.503Z,53.49
2018-05-15T10:37:12.645Z,51.56
2018-05-15T10:38:21.915Z,52.62
2018-05-15T10:39:30.707Z,52.14
2018-05-15T10:40:39.572Z,50.91
2018-05-15T10:41:48.441Z,51.78
2018-05-15T10:42:57.586Z,51.87
2018-05-15T10:44:06.453Z,51.97
2018-05-15T10:45:15.319Z,52.26
2018-05-15T10:46:24.467Z,51.87
2018-05-15T10:47:33.335Z,52.65
2018-05-15T10:48:42.201Z,51.68
2018-05-15T10:49:51.684Z,50.91
2018-05-15T10:51:00.552Z,50.23
2018-05-15T10:52:09.417Z,51.68
2018-05-15T10:53:18.284Z,52.55
2018-05-15T10:54:27.150Z,50.04
2018-05-15T10:55:36.167Z,50.91
2018-05-15T10:56:45.037Z,53.64
2018-05-15T10:57:53.906Z,51.87
2018-05-15T10:59:02.774Z,51.03
2018-05-15T11:00:11.642Z,51.51
2018-05-15T11:01:20.560Z,50.26
2018-05-15T11:02:29.429Z,50.84
2018-05-15T11:03:38.295Z,50.35
2018-05-15T11:04:47.460Z,49.58
2018-05-15T11:05:56.608Z,50.35
2018-05-15T11:07:05.476Z,49.77
2018-05-15T11:08:14.343Z,48.81
2018-05-15T11:09:23.492Z,49.68
2018-05-15T11:10:32.640Z,47.86
2018-05-15T11:11:41.506Z,49.12
2018-05-15T11:12:50.879Z,49.8
2018-05-15T11:14:00.029Z,48.74
2018-05-15T11:15:09.490Z,47.48
2018-05-15T11:16:18.358Z,47.48
2018-05-15T11:17:27.225Z,47.48
2018-05-15T11:18:36.608Z,47.96
2018-05-15T11:19:45.776Z,47.86
2018-05-15T11:20:54.923Z,47.09
2018-05-15T11:22:03.794Z,46.78
2018-05-15T11:23:12.663Z,47
2018-05-15T11:24:21.686Z,47.19
2018-05-15T11:25:30.553Z,44.65
2018-05-15T11:26:39.422Z,44.96
2018-05-15T11:27:48.289Z,46.9
2018-05-15T11:28:57.165Z,46.51
2018-05-15T11:30:06.127Z,47.86
2018-05-15T11:31:14.992Z,46.83
2018-05-15T11:32:23.860Z,46.53
2018-05-15T11:33:33.009Z,46.63
2018-05-15T11:34:41.879Z,45.66
2018-05-15T11:35:50.940Z,46.53
2018-05-15T11:37:00.503Z,45.66
2018-05-15T11:38:09.373Z,46.83
2018-05-15T11:39:18.236Z,46.73
2018-05-15T11:40:27.104Z,46.36
2018-05-15T11:41:36.402Z,46.53
2018-05-15T11:42:46.000Z,47.24
2018-05-15T11:43:54.882Z,47.04
2018-05-15T11:45:03.746Z,44.45
2018-05-15T11:46:12.615Z,43.68
2018-05-15T11:47:21.628Z,44.35
2018-05-15T11:48:31.462Z,43.55
2018-05-15T11:49:43.343Z,44.72
2018-05-15T11:50:51.580Z,44.62
2018-05-15T11:52:04.096Z,45.22
2018-05-15T11:53:14.771Z,44.26
2018-05-15T11:54:23.000Z,43.29
2018-05-15T11:55:35.294Z,44.16
2018-05-15T11:56:47.773Z,45.81
2018-05-15T11:57:56.655Z,45.44
2018-05-15T11:59:05.664Z,45.15
2018-05-15T12:00:14.627Z,43.52
2018-05-15T12:01:23.403Z,43.13
2018-05-15T12:02:32.384Z,43.82
2018-05-15T12:03:41.501Z,42.44
2018-05-15T12:04:50.808Z,44.3
2018-05-15T12:05:59.684Z,43.72
2018-05-15T12:07:08.832Z,43.45
2018-05-15T12:08:17.795Z,44.03
2018-05-15T12:09:27.548Z,44.13
2018-05-15T12:10:36.661Z,43.95
2018-05-15T12:11:45.945Z,42.79
2018-05-15T12:12:54.893Z,41.63
2018-05-15T12:14:03.755Z,41.63
2018-05-15T12:15:13.014Z,41.43
2018-05-15T12:16:21.992Z,40.46
2018-05-15T12:17:30.877Z,40.85
2018-05-15T12:18:39.765Z,40.36
2018-05-15T12:19:48.646Z,41.05
2018-05-15T12:20:58.142Z,40.97
2018-05-15T12:22:07.737Z,40.19
2018-05-15T12:23:16.614Z,41.55
2018-05-15T12:24:25.791Z,41.08
2018-05-15T12:25:34.638Z,40.69
2018-05-15T12:26:43.514Z,40.69
2018-05-15T12:27:52.544Z,39.92
2018-05-15T12:29:01.698Z,40.6
2018-05-15T12:30:10.581Z,40.21
2018-05-15T12:31:19.456Z,39.26
2018-05-15T12:32:28.330Z,39.62
2018-05-15T12:33:37.258Z,39.51
2018-05-15T12:34:46.414Z,41.16
2018-05-15T12:35:55.305Z,40.56
2018-05-15T12:37:04.559Z,40.85
2018-05-15T12:38:13.435Z,40.46
2018-05-15T12:39:22.358Z,40.26
2018-05-15T12:40:31.508Z,40.73
2018-05-15T12:41:40.941Z,40.64
2018-05-15T12:42:50.482Z,41.7
2018-05-15T12:43:59.646Z,42.29
2018-05-15T12:45:08.571Z,41.51
2018-05-15T12:46:17.453Z,41.7
2018-05-15T12:47:26.332Z,42.09
2018-05-15T12:48:35.278Z,42.09
2018-05-15T12:49:44.074Z,42.85
2018-05-15T12:50:53.094Z,42.07
2018-05-15T12:52:01.972Z,42.14
2018-05-15T12:53:11.125Z,42.54
2018-05-15T12:54:19.987Z,42.94
2018-05-15T12:55:28.855Z,42.75
2018-05-15T12:56:38.255Z,42.07
2018-05-15T12:57:47.127Z,43.43
2018-05-15T12:58:55.998Z,41.99
2018-05-15T13:00:04.867Z,40.83
2018-05-15T13:01:13.738Z,40.85
2018-05-15T13:02:22.714Z,41.14
2018-05-15T13:03:31.586Z,41.72
2018-05-15T13:04:40.458Z,41.26
2018-05-15T13:05:49.332Z,38.83
2018-05-15T13:06:58.205Z,40.39
2018-05-15T13:08:07.330Z,39.41
2018-05-15T13:09:16.228Z,39.04
2018-05-15T13:10:25.105Z,39.43
2018-05-15T13:11:34.397Z,40.31
2018-05-15T13:12:43.546Z,38.93
2018-05-15T13:13:52.519Z,39.7
2018-05-15T13:15:01.677Z,40.36
2018-05-15T13:16:10.560Z,40.75
2018-05-15T13:17:19.709Z,41.72
2018-05-15T13:18:28.718Z,40.46
2018-05-15T13:19:38.018Z,41.43
2018-05-15T13:20:47.176Z,41.89
2018-05-15T13:21:56.053Z,42.69
2018-05-15T13:23:04.925Z,42.02
2018-05-15T13:24:14.118Z,41.53
2018-05-15T13:25:23.349Z,41.43
2018-05-15T13:26:32.221Z,41.74
2018-05-15T13:27:41.095Z,41.26
2018-05-15T13:28:50.250Z,41.94
2018-05-15T13:29:59.683Z,41.67
2018-05-15T13:31:08.607Z,41.59
2018-05-15T13:32:17.483Z,40.03
2018-05-15T13:33:26.363Z,39.55
2018-05-15T13:34:35.510Z,38.65
2018-05-15T13:35:44.387Z,39.34
2018-05-15T13:36:53.861Z,38.27
2018-05-15T13:38:02.739Z,37.12
2018-05-15T13:39:11.612Z,37.99
2018-05-15T13:40:20.488Z,37.72
2018-05-15T13:41:29.641Z,38.31
2018-05-15T13:42:38.718Z,37.45
2018-05-15T13:43:47.598Z,36.28
2018-05-15T13:44:56.474Z,35.03
2018-05-15T13:46:05.908Z,35.71
2018-05-15T13:47:14.790Z,34.66
2018-05-15T13:48:23.668Z,36.32
2018-05-15T13:49:32.838Z,34.86
2018-05-15T13:50:41.718Z,34.95
2018-05-15T13:51:50.594Z,35.73
2018-05-15T13:52:59.469Z,35.81
2018-05-15T13:54:08.344Z,35.71
2018-05-15T13:55:17.512Z,36.38
2018-05-15T13:56:26.390Z,35.99
2018-05-15T13:57:35.541Z,36.94
2018-05-15T13:58:44.696Z,36.63
2018-05-15T13:59:53.573Z,38.09
2018-05-15T14:01:02.737Z,37.2
2018-05-15T14:02:11.612Z,38.46
2018-05-15T14:03:20.491Z,38.46
2018-05-15T14:04:29.365Z,38.34
2018-05-15T14:05:38.338Z,39.34
2018-05-15T14:06:47.218Z,38.06
2018-05-15T14:07:56.083Z,38.25
2018-05-15T14:09:04.953Z,38.83
2018-05-15T14:10:13.824Z,39.78
2018-05-15T14:11:22.794Z,40.85
2018-05-15T14:12:32.003Z,40.26
2018-05-15T14:13:41.649Z,41.72
2018-05-15T14:14:50.524Z,41.14
2018-05-15T14:15:59.393Z,41.51
2018-05-15T14:17:08.262Z,41.31
2018-05-15T14:18:17.131Z,41.8
2018-05-15T14:19:26.002Z,40.73
2018-05-15T14:20:34.870Z,41.12
2018-05-15T14:21:44.022Z,41.89
2018-05-15T14:22:53.283Z,41.99
2018-05-15T14:24:02.273Z,41.99
2018-05-15T14:25:11.147Z,43.06
2018-05-15T14:26:20.211Z,42.67
2018-05-15T14:27:29.288Z,41.89
2018-05-15T14:28:39.127Z,42.29
2018-05-15T14:29:47.996Z,44.13
2018-05-15T14:30:57.015Z,42.67
2018-05-15T14:32:05.931Z,42.09
2018-05-15T14:33:15.053Z,41.99
2018-05-15T14:34:24.524Z,41.99
2018-05-15T14:35:33.864Z,41.82
2018-05-15T14:36:42.951Z,41.26
2018-05-15T14:37:52.540Z,41.06
2018-05-15T14:39:01.644Z,40.89
2018-05-15T14:40:11.338Z,42.13
2018-05-15T14:41:20.523Z,41.64
2018-05-15T14:42:29.557Z,41.45
2018-05-15T14:43:39.024Z,40.41
2018-05-15T14:44:48.168Z,39.62
2018-05-15T14:45:57.615Z,40.39
2018-05-15T14:47:06.851Z,40.09
2018-05-15T14:48:15.945Z,40.09
2018-05-15T14:49:25.071Z,41.55
2018-05-15T14:50:34.294Z,41.72
2018-05-15T14:51:43.748Z,41.43
2018-05-15T14:52:53.185Z,41.63